Time;durP1;ratioP1;P1;durP2;ratioP2;P2;SDS_P1;SDS_P2;PMS_P1;PMS_P2;Temp;Humidity;BMP_temperature;BMP_pressure;BME280_temperature;BME280_humidity;BME280_pressure;Samples;Min_cycle;Max_cycle;Signal;HPM_P1;HPM_P2
2022/09/07 00:07:58;;;;;;;6.17;4.13;;;15.70;99.90;;;;;;20854086;28;20061;-78
2022/09/07 00:17:59;;;;;;;6.45;2.70;;;15.90;99.90;;;;;;20853314;28;20041;-79
2022/09/07 00:28:00;;;;;;;12.60;4.27;;;16.00;99.90;;;;;;20837833;28;20499;-78
2022/09/07 00:38:00;;;;;;;11.17;3.37;;;16.00;99.90;;;;;;20853493;28;20052;-79
2022/09/07 00:48:13;;;;;;;6.93;3.40;;;16.00;99.90;;;;;;20865104;22;20048;-78
2022/09/07 00:58:15;;;;;;;5.78;3.33;;;16.00;99.90;;;;;;20935560;28;20033;-77
2022/09/07 01:08:16;;;;;;;7.43;3.00;;;16.00;99.90;;;;;;20933522;28;20040;-78
2022/09/07 01:18:36;;;;;;;11.75;3.20;;;16.00;99.90;;;;;;20918317;28;20045;-78
2022/09/07 01:28:38;;;;;;;8.75;3.20;;;15.90;99.90;;;;;;20930755;28;20067;-78
2022/09/07 01:38:47;;;;;;;;;;;15.80;99.90;;;;;;20931965;28;20045;-78
2022/09/07 01:48:51;;;;;;;7.53;3.28;;;15.60;99.90;;;;;;20914596;28;19920;-78
2022/09/07 01:59:02;;;;;;;8.18;3.42;;;15.70;99.90;;;;;;20930349;28;20028;-78
2022/09/07 02:09:26;;;;;;;9.18;3.45;;;15.60;99.90;;;;;;20930314;28;20045;-78
2022/09/07 02:19:34;;;;;;;9.50;4.00;;;15.60;99.90;;;;;;20915201;28;20119;-78
2022/09/07 02:29:34;;;;;;;10.60;5.20;;;15.40;99.90;;;;;;20926576;28;20073;-78
2022/09/07 02:39:36;;;;;;;30.43;11.63;;;15.60;99.90;;;;;;20924071;28;20033;-77
2022/09/07 02:50:10;;;;;;;54.20;13.27;;;15.70;99.90;;;;;;20922897;28;20040;-78
2022/09/07 03:00:24;;;;;;;40.83;15.35;;;15.90;99.90;;;;;;20922964;28;20045;-77
2022/09/07 03:10:26;;;;;;;26.65;10.98;;;16.00;99.90;;;;;;20930388;28;20112;-78
2022/09/07 03:20:27;;;;;;;35.40;13.50;;;15.90;99.90;;;;;;20923987;28;20040;-77
2022/09/07 03:30:28;;;;;;;31.37;13.93;;;16.00;99.90;;;;;;20891890;28;20052;-76
2022/09/07 03:40:29;;;;;;;13.00;7.53;;;16.20;99.90;;;;;;20887404;28;20040;-77
2022/09/07 03:50:30;;;;;;;15.40;8.53;;;16.20;99.90;;;;;;20903260;28;20053;-77
2022/09/07 04:00:30;;;;;;;23.50;9.57;;;16.20;99.90;;;;;;20918575;28;20037;-77
2022/09/07 04:10:37;;;;;;;32.83;11.20;;;16.20;99.90;;;;;;20920036;28;20563;-77
2022/09/07 04:20:38;;;;;;;51.58;16.10;;;16.10;99.90;;;;;;20918780;28;20523;-77
2022/09/07 04:30:39;;;;;;;43.77;17.57;;;16.20;99.90;;;;;;20899216;28;20138;-76
2022/09/07 04:40:40;;;;;;;44.67;18.33;;;16.30;99.90;;;;;;20917271;28;20068;-77
2022/09/07 04:50:40;;;;;;;43.40;18.60;;;16.40;99.90;;;;;;20920608;28;20049;-78
2022/09/07 05:00:41;;;;;;;40.50;18.57;;;16.30;99.90;;;;;;20932725;28;20500;-77
2022/09/07 05:10:53;;;;;;;36.83;16.93;;;16.30;99.90;;;;;;20929330;28;20059;-77
2022/09/07 05:20:54;;;;;;;28.63;14.77;;;16.40;99.90;;;;;;20926000;28;20040;-78
2022/09/07 05:31:01;;;;;;;18.10;9.97;;;16.30;99.90;;;;;;20931995;28;20032;-77
2022/09/07 05:41:17;;;;;;;14.73;7.75;;;16.20;99.90;;;;;;20931804;28;20108;-78
2022/09/07 05:51:18;;;;;;;9.45;5.15;;;16.40;99.90;;;;;;20932193;28;20037;-78
2022/09/07 06:01:19;;;;;;;14.77;8.07;;;16.50;99.90;;;;;;20924651;28;20044;-79
2022/09/07 06:11:23;;;;;;;29.87;13.60;;;16.80;99.90;;;;;;20925462;28;20494;-81
2022/09/07 06:21:24;;;;;;;26.08;14.50;;;16.60;99.90;;;;;;20926713;28;20478;-81
2022/09/07 06:31:27;;;;;;;32.50;14.90;;;16.60;99.90;;;;;;20908932;28;20036;-79
2022/09/07 06:41:29;;;;;;;33.65;17.30;;;16.70;99.90;;;;;;20928583;28;20036;-81
2022/09/07 06:51:30;;;;;;;30.88;17.85;;;16.90;99.90;;;;;;20937516;28;20041;-79
2022/09/07 07:01:32;;;;;;;25.40;14.35;;;17.20;99.90;;;;;;21035839;22;20052;-84
2022/09/07 07:11:36;;;;;;;29.00;16.20;;;17.50;99.90;;;;;;21078463;28;20040;-85
2022/09/07 07:21:36;;;;;;;27.30;15.20;;;17.80;99.90;;;;;;21100528;28;20046;-81
2022/09/07 07:31:37;;;;;;;31.73;14.47;;;18.10;99.90;;;;;;21179361;28;20259;-81
2022/09/07 07:41:38;;;;;;;19.40;13.20;;;18.30;99.90;;;;;;21178121;28;20039;-84
2022/09/07 07:51:39;;;;;;;16.13;10.53;;;19.20;99.90;;;;;;21176713;28;20136;-82
2022/09/07 08:01:40;;;;;;;19.63;9.67;;;20.70;99.90;;;;;;21157452;28;20055;-83
2022/09/07 08:11:41;;;;;;;16.43;9.80;;;19.80;99.90;;;;;;21157798;28;20039;-81
2022/09/07 08:21:42;;;;;;;;;;;20.50;99.90;;;;;;21155708;28;20049;-83
2022/09/07 08:31:43;;;;;;;12.00;7.20;;;20.80;99.90;;;;;;21175441;28;19912;-83
2022/09/07 08:42:05;;;;;;;11.00;6.77;;;21.50;99.90;;;;;;21138118;28;20135;-81
2022/09/07 08:52:38;;;;;;;;;;;23.50;99.90;;;;;;21139373;28;20526;-83
2022/09/07 09:02:39;;;;;;;12.50;4.32;;;24.70;99.90;;;;;;21123793;28;19911;-83
2022/09/07 09:12:51;;;;;;;12.30;4.60;;;24.70;99.90;;;;;;21155006;28;20059;-84
2022/09/07 09:23:00;;;;;;;14.65;3.45;;;24.40;99.90;;;;;;21153973;28;20046;-84
2022/09/07 09:33:14;;;;;;;6.82;3.50;;;24.00;99.90;;;;;;21152859;28;20066;-84
2022/09/07 09:43:52;;;;;;;4.18;2.60;;;24.10;99.90;;;;;;21155586;28;20126;-85
2022/09/07 09:54:33;;;;;;;6.57;2.05;;;24.70;99.90;;;;;;21131217;28;20043;-83
2022/09/07 10:04:34;;;;;;;12.65;2.42;;;25.20;99.90;;;;;;21149321;28;20092;-83
2022/09/07 10:14:43;;;;;;;9.52;2.08;;;24.90;99.90;;;;;;21133328;28;20036;-84
2022/09/07 10:24:44;;;;;;;10.10;2.00;;;27.10;99.90;;;;;;21165354;28;20031;-84
2022/09/07 10:35:15;;;;;;;11.88;2.40;;;27.60;99.90;;;;;;21145079;28;20515;-85
2022/09/07 10:45:43;;;;;;;10.18;2.17;;;27.70;99.90;;;;;;21127856;28;20031;-86
2022/09/07 10:55:59;;;;;;;5.97;1.92;;;27.30;99.90;;;;;;21135264;28;20035;-84
2022/09/07 11:06:18;;;;;;;6.57;1.75;;;27.40;99.90;;;;;;21151135;28;20040;-83
2022/09/07 11:16:32;;;;;;;8.75;2.17;;;27.30;99.90;;;;;;21161933;28;20089;-82
2022/09/07 11:26:43;;;;;;;9.55;2.15;;;27.10;99.90;;;;;;21163521;28;20403;-83
2022/09/07 11:36:56;;;;;;;10.35;1.25;;;27.30;99.90;;;;;;21144679;28;20062;-83
2022/09/07 11:47:03;;;;;;;6.25;1.48;;;27.20;99.90;;;;;;21143600;28;20061;-81
2022/09/07 11:57:37;;;;;;;7.68;2.35;;;26.50;99.90;;;;;;21172704;28;20388;-83
2022/09/07 12:07:45;;;;;;;5.45;1.60;;;26.50;99.90;;;;;;21158641;28;20036;-82
2022/09/07 12:18:30;;;;;;;4.40;1.55;;;26.70;99.90;;;;;;21155790;28;20561;-82
2022/09/07 12:28:34;;;;;;;6.70;1.88;;;26.80;99.90;;;;;;21155002;28;20419;-82
2022/09/07 12:39:16;;;;;;;3.58;1.40;;;26.30;99.90;;;;;;21136357;28;20039;-82
2022/09/07 12:49:32;;;;;;;4.50;1.40;;;25.70;99.90;;;;;;21174692;28;20560;-85
2022/09/07 12:59:44;;;;;;;23.80;1.88;;;26.20;99.90;;;;;;21140527;28;20050;-84
2022/09/07 13:10:26;;;;;;;6.10;1.40;;;26.70;99.90;;;;;;21158406;28;20372;-84
2022/09/07 13:20:31;;;;;;;;;;;26.80;99.90;;;;;;21128293;28;20407;-84
2022/09/07 13:30:54;;;;;;;4.90;1.40;;;27.30;99.90;;;;;;21154015;28;19907;-83
2022/09/07 13:41:04;;;;;;;10.18;1.50;;;27.30;99.90;;;;;;21153468;28;20089;-84
2022/09/07 13:51:26;;;;;;;5.90;1.50;;;27.40;99.90;;;;;;21151003;28;20043;-83
2022/09/07 14:01:28;;;;;;;3.53;1.70;;;28.00;99.90;;;;;;21131547;28;20042;-83
2022/09/07 14:11:41;;;;;;;5.80;1.35;;;27.40;99.90;;;;;;21141124;28;20154;-84
2022/09/07 14:21:42;;;;;;;3.17;1.70;;;27.20;99.90;;;;;;21045908;28;20050;-83
2022/09/07 14:31:43;;;;;;;7.38;1.65;;;27.40;99.90;;;;;;21137208;28;20039;-83
2022/09/07 14:41:45;;;;;;;3.38;1.50;;;26.80;99.90;;;;;;21082837;28;20043;-84
2022/09/07 14:51:47;;;;;;;3.70;1.63;;;25.90;99.90;;;;;;21078726;28;20032;-83
2022/09/07 15:01:48;;;;;;;6.88;1.73;;;25.90;99.90;;;;;;21077241;28;20519;-82
2022/09/07 15:11:49;;;;;;;8.47;1.80;;;25.40;99.90;;;;;;21067042;28;20381;-83
2022/09/07 15:21:49;;;;;;;11.52;2.50;;;25.40;99.90;;;;;;21078241;28;20297;-82
2022/09/07 15:31:50;;;;;;;7.82;1.42;;;23.90;99.90;;;;;;21075221;28;20040;-82
2022/09/07 15:41:51;;;;;;;8.23;2.17;;;24.20;99.90;;;;;;21119250;28;20067;-84
2022/09/07 15:51:52;;;;;;;5.78;1.85;;;24.60;99.90;;;;;;21147854;28;20047;-83
2022/09/07 16:01:53;;;;;;;6.82;2.20;;;23.70;99.90;;;;;;21159644;28;20035;-81
2022/09/07 16:11:54;;;;;;;;;;;23.70;99.90;;;;;;21103648;28;20492;-82
2022/09/07 16:21:54;;;;;;;12.17;2.23;;;23.80;99.90;;;;;;21095731;28;20042;-82
2022/09/07 16:31:55;;;;;;;8.85;2.33;;;23.80;99.90;;;;;;21113954;28;20135;-83
2022/09/07 16:41:56;;;;;;;7.85;2.53;;;23.40;99.90;;;;;;21130587;28;20042;-83
2022/09/07 16:51:57;;;;;;;;;;;23.40;99.90;;;;;;21177835;28;20059;-83
2022/09/07 17:01:58;;;;;;;10.97;2.30;;;22.90;99.90;;;;;;21160640;28;19911;-83
2022/09/07 17:11:58;;;;;;;;;;;22.80;99.90;;;;;;21156984;28;20043;-82
2022/09/07 17:21:59;;;;;;;9.77;2.80;;;22.70;99.90;;;;;;21132380;28;19994;-83
2022/09/07 17:32:01;;;;;;;6.35;2.47;;;21.90;99.90;;;;;;21050131;28;20050;-82
2022/09/07 17:42:01;;;;;;;;;;;21.70;99.90;;;;;;21076438;28;20116;-84
2022/09/07 17:52:03;;;;;;;11.87;3.37;;;21.60;99.90;;;;;;21054323;28;19908;-83
2022/09/07 18:02:03;;;;;;;8.77;3.03;;;21.60;99.90;;;;;;21052391;28;20293;-82
2022/09/07 18:12:04;;;;;;;5.60;2.77;;;21.30;99.90;;;;;;21072341;28;20105;-82
2022/09/07 18:22:07;;;;;;;8.63;2.83;;;21.20;99.90;;;;;;21091945;28;20526;-83
2022/09/07 18:32:08;;;;;;;7.53;2.80;;;20.90;99.90;;;;;;21103051;28;20036;-83
2022/09/07 18:42:11;;;;;;;11.05;2.92;;;20.70;99.90;;;;;;21095626;28;20048;-84
2022/09/07 18:52:11;;;;;;;7.32;3.30;;;20.70;99.90;;;;;;21084400;28;20099;-84
2022/09/07 19:02:13;;;;;;;6.87;3.30;;;20.30;99.90;;;;;;20894539;22;20057;-77
2022/09/07 19:12:14;;;;;;;12.23;3.70;;;20.10;99.90;;;;;;20788860;28;20108;-77
2022/09/07 19:22:14;;;;;;;;;;;20.00;99.90;;;;;;20800442;28;20038;-77
2022/09/07 19:32:16;;;;;;;6.60;3.20;;;19.90;99.90;;;;;;20813979;28;20014;-77
2022/09/07 19:42:16;;;;;;;4.80;1.25;;;20.00;99.90;;;;;;20768537;28;20061;-77
2022/09/07 19:52:17;;;;;;;1.93;1.00;;;20.10;99.90;;;;;;20764977;28;20109;-76
2022/09/07 20:02:18;;;;;;;6.00;1.23;;;19.80;99.90;;;;;;20757371;28;20030;-75
2022/09/07 20:12:19;;;;;;;2.73;1.00;;;19.60;99.90;;;;;;20754621;28;20041;-75
2022/09/07 20:22:20;;;;;;;3.67;1.03;;;18.40;99.90;;;;;;20754217;28;20500;-75
2022/09/07 20:32:21;;;;;;;2.23;0.83;;;18.10;99.90;;;;;;20754099;28;20511;-74
2022/09/07 20:42:21;;;;;;;3.40;1.03;;;18.00;99.90;;;;;;20753839;28;20045;-76
2022/09/07 20:52:22;;;;;;;2.53;1.00;;;17.80;99.90;;;;;;20742934;28;20069;-75
2022/09/07 21:02:23;;;;;;;2.17;1.10;;;17.70;99.90;;;;;;20756185;28;20036;-75
2022/09/07 21:12:24;;;;;;;4.57;1.33;;;17.70;99.90;;;;;;20740030;28;20042;-75
2022/09/07 21:22:25;;;;;;;5.23;1.20;;;17.40;99.90;;;;;;20777737;28;20380;-76
2022/09/07 21:32:26;;;;;;;3.80;1.33;;;17.40;99.90;;;;;;20814977;28;20535;-76
2022/09/07 21:42:26;;;;;;;2.63;1.57;;;17.50;99.90;;;;;;20794736;28;20161;-75
2022/09/07 21:52:27;;;;;;;8.43;1.47;;;17.20;99.90;;;;;;20786308;28;20033;-75
2022/09/07 22:02:28;;;;;;;2.80;1.70;;;17.20;99.90;;;;;;20829843;28;20097;-75
2022/09/07 22:12:29;;;;;;;9.13;2.27;;;16.90;99.90;;;;;;20836934;28;20038;-75
2022/09/07 22:22:30;;;;;;;12.20;2.33;;;16.60;99.90;;;;;;20809879;28;20041;-76
2022/09/07 22:32:30;;;;;;;4.07;1.90;;;16.50;99.90;;;;;;20826539;28;20519;-76
2022/09/07 22:42:31;;;;;;;4.70;1.87;;;16.40;99.90;;;;;;20825289;28;20037;-77
2022/09/07 22:52:32;;;;;;;3.67;2.20;;;16.60;99.90;;;;;;20825301;28;20080;-77
2022/09/07 23:02:33;;;;;;;16.70;2.13;;;16.70;99.90;;;;;;20824986;28;20045;-77
2022/09/07 23:12:33;;;;;;;7.83;2.40;;;16.60;99.90;;;;;;20824514;28;20037;-75
2022/09/07 23:22:34;;;;;;;5.30;1.77;;;16.70;99.90;;;;;;20824105;28;20129;-75
2022/09/07 23:32:35;;;;;;;7.73;2.07;;;16.70;99.90;;;;;;20824375;28;20450;-75
2022/09/07 23:42:36;;;;;;;5.93;1.87;;;16.50;99.90;;;;;;20827301;28;20029;-75
2022/09/07 23:52:37;;;;;;;9.27;2.70;;;16.50;99.90;;;;;;20816508;28;20094;-75
